createdAt,value
2023-05-21T00:00:12.737Z,93.86
2023-05-21T00:01:34.697Z,93.71
2023-05-21T00:02:59.165Z,92.62
2023-05-21T00:04:21.376Z,91.39
2023-05-21T00:05:47.041Z,92.24
2023-05-21T00:07:10.263Z,93.79
2023-05-21T00:08:34.120Z,95.41
2023-05-21T00:09:56.916Z,94.57
2023-05-21T00:11:19.826Z,93.05
2023-05-21T00:12:42.029Z,92.02
2023-05-21T00:14:05.045Z,93.20
2023-05-21T00:15:27.900Z,92.85
2023-05-21T00:16:49.962Z,91.15
2023-05-21T00:18:12.923Z,90.53
2023-05-21T00:19:36.618Z,90.59
2023-05-21T00:20:59.900Z,90.29
2023-05-21T00:22:22.728Z,91.66
2023-05-21T00:23:45.464Z,91.62
2023-05-21T00:25:09.188Z,90.81
2023-05-21T00:26:32.069Z,90.68
2023-05-21T00:27:54.604Z,90.41
2023-05-21T00:29:17.424Z,90.09
2023-05-21T00:30:41.040Z,90.76
2023-05-21T00:32:04.245Z,90.21
2023-05-21T00:33:28.954Z,90.07
2023-05-21T00:34:50.858Z,89.98
2023-05-21T00:36:15.380Z,89.98
2023-05-21T00:37:38.416Z,90.06
2023-05-21T00:39:00.312Z,91.38
2023-05-21T00:40:23.650Z,92.70
2023-05-21T00:41:46.644Z,95.16
2023-05-21T00:43:10.135Z,95.81
2023-05-21T00:44:34.512Z,95.80
2023-05-21T00:45:59.179Z,97.54
2023-05-21T00:47:22.572Z,97.60
2023-05-21T00:48:45.966Z,96.56
2023-05-21T00:50:10.145Z,96.89
2023-05-21T00:51:34.321Z,96.03
2023-05-21T00:52:56.542Z,94.97
2023-05-21T00:54:19.724Z,94.03
2023-05-21T00:55:42.548Z,94.46
2023-05-21T00:57:05.780Z,95.04
2023-05-21T00:58:28.928Z,95.56
2023-05-21T00:59:53.326Z,95.94
2023-05-21T01:01:16.204Z,94.68
2023-05-21T01:02:39.578Z,96.16
2023-05-21T01:04:01.821Z,97.32
2023-05-21T01:05:24.884Z,99.10
2023-05-21T01:06:48.148Z,98.97
2023-05-21T01:08:10.985Z,98.57
2023-05-21T01:09:33.850Z,97.68
2023-05-21T01:10:56.828Z,97.22
2023-05-21T01:12:21.557Z,96.79
2023-05-21T01:13:45.629Z,96.11
2023-05-21T01:15:10.759Z,95.89
2023-05-21T01:16:32.737Z,96.06
2023-05-21T01:17:55.883Z,97.16
2023-05-21T01:19:20.160Z,98.91
2023-05-21T01:20:48.088Z,98.68
2023-05-21T01:22:14.735Z,96.53
2023-05-21T01:23:39.043Z,96.76
2023-05-21T01:25:02.781Z,97.17
2023-05-21T01:26:26.367Z,97.27
2023-05-21T01:27:49.283Z,97.41
2023-05-21T01:29:13.101Z,96.43
2023-05-21T01:30:37.181Z,95.29
2023-05-21T01:32:04.986Z,95.14
2023-05-21T01:33:34.718Z,97.46
2023-05-21T01:35:02.053Z,97.10
2023-05-21T01:36:31.119Z,96.17
2023-05-21T01:38:05.867Z,96.26
2023-05-21T01:39:35.277Z,96.07
2023-05-21T01:41:03.755Z,97.89
2023-05-21T01:42:27.818Z,97.95
2023-05-21T01:43:51.347Z,97.74
2023-05-21T01:45:16.649Z,96.13
2023-05-21T01:46:38.776Z,95.83
2023-05-21T01:48:01.943Z,95.11
2023-05-21T01:49:24.544Z,94.49
2023-05-21T01:50:48.560Z,93.42
2023-05-21T01:52:10.606Z,92.85
2023-05-21T01:53:33.445Z,92.21
2023-05-21T01:55:00.344Z,92.05
2023-05-21T01:56:25.954Z,92.09
2023-05-21T01:57:48.982Z,91.95
2023-05-21T01:59:11.521Z,92.08
2023-05-21T02:00:34.619Z,92.11
2023-05-21T02:01:57.580Z,92.57
2023-05-21T02:03:21.741Z,92.22
2023-05-21T02:04:44.246Z,92.49
2023-05-21T02:06:07.085Z,92.82
2023-05-21T02:07:29.035Z,92.62
2023-05-21T02:08:52.036Z,91.85
2023-05-21T02:10:16.214Z,91.50
2023-05-21T02:11:39.031Z,91.09
2023-05-21T02:13:02.084Z,90.95
2023-05-21T02:14:25.295Z,90.82
2023-05-21T02:15:48.225Z,90.63
2023-05-21T02:17:10.313Z,91.19
2023-05-21T02:18:34.183Z,90.69
2023-05-21T02:19:56.994Z,90.97
2023-05-21T02:21:20.616Z,90.60
2023-05-21T02:22:45.508Z,91.41
2023-05-21T02:24:08.328Z,91.36
2023-05-21T02:25:32.786Z,91.70
2023-05-21T02:26:55.720Z,90.85
2023-05-21T02:28:17.634Z,91.48
2023-05-21T02:29:40.482Z,91.53
2023-05-21T02:31:02.382Z,91.75
2023-05-21T02:32:25.587Z,91.66
2023-05-21T02:33:47.522Z,93.01
2023-05-21T02:35:12.309Z,94.18
2023-05-21T02:36:36.108Z,94.11
2023-05-21T02:37:59.566Z,94.15
2023-05-21T02:39:22.511Z,93.62
2023-05-21T02:40:45.739Z,94.38
2023-05-21T02:42:08.576Z,94.62
2023-05-21T02:43:30.519Z,94.67
2023-05-21T02:44:53.455Z,94.49
2023-05-21T02:46:16.395Z,94.55
2023-05-21T02:47:38.645Z,94.28
2023-05-21T02:49:01.540Z,93.84
2023-05-21T02:50:23.738Z,93.65
2023-05-21T02:51:46.569Z,93.34
2023-05-21T02:53:09.412Z,93.00
2023-05-21T02:54:32.226Z,92.78
2023-05-21T02:55:56.441Z,92.98
2023-05-21T02:57:18.395Z,93.41
2023-05-21T02:58:41.708Z,93.25
2023-05-21T03:00:05.907Z,95.56
2023-05-21T03:01:29.293Z,97.08
2023-05-21T03:02:51.300Z,96.09
2023-05-21T03:04:14.211Z,95.04
2023-05-21T03:05:36.348Z,94.24
2023-05-21T03:07:02.140Z,93.63
2023-05-21T03:08:25.307Z,93.52
2023-05-21T03:09:48.296Z,93.14
2023-05-21T03:11:12.468Z,93.40
2023-05-21T03:12:34.349Z,93.13
2023-05-21T03:13:57.154Z,92.55
2023-05-21T03:15:24.237Z,92.43
2023-05-21T03:16:47.233Z,92.29
2023-05-21T03:18:10.150Z,93.27
2023-05-21T03:19:34.499Z,93.51
2023-05-21T03:20:58.975Z,93.37
2023-05-21T03:22:21.587Z,93.25
2023-05-21T03:23:44.418Z,92.65
2023-05-21T03:25:06.962Z,92.97
2023-05-21T03:26:31.107Z,92.70
2023-05-21T03:27:53.885Z,92.59
2023-05-21T03:29:15.831Z,92.65
2023-05-21T03:30:39.178Z,92.60
2023-05-21T03:32:02.837Z,92.60
2023-05-21T03:33:25.944Z,92.56
2023-05-21T03:34:47.869Z,92.95
2023-05-21T03:36:10.828Z,92.89
2023-05-21T03:37:32.730Z,92.96
2023-05-21T03:38:55.557Z,93.84
2023-05-21T03:40:18.391Z,93.71
2023-05-21T03:41:42.641Z,93.21
2023-05-21T03:43:04.602Z,93.91
2023-05-21T03:44:27.940Z,94.14
2023-05-21T03:45:49.905Z,94.02
2023-05-21T03:47:12.720Z,93.85
2023-05-21T03:48:35.589Z,94.03
2023-05-21T03:49:57.488Z,94.64
2023-05-21T03:51:20.983Z,95.09
2023-05-21T03:52:42.837Z,94.74
2023-05-21T03:54:05.757Z,94.62
2023-05-21T03:55:29.408Z,94.22
2023-05-21T03:56:52.585Z,93.47
2023-05-21T03:58:15.546Z,94.09
2023-05-21T03:59:37.494Z,93.66
2023-05-21T04:01:01.810Z,95.10
2023-05-21T04:02:26.637Z,94.25
2023-05-21T04:03:48.866Z,93.33
2023-05-21T04:05:11.807Z,93.12
2023-05-21T04:06:34.726Z,93.34
2023-05-21T04:07:58.755Z,93.45
2023-05-21T04:09:21.144Z,94.01
2023-05-21T04:10:43.933Z,94.62
2023-05-21T04:12:07.954Z,95.44
2023-05-21T04:13:30.785Z,94.93
2023-05-21T04:14:53.635Z,94.64
2023-05-21T04:16:19.559Z,94.76
2023-05-21T04:17:42.518Z,94.17
2023-05-21T04:19:04.459Z,95.33
2023-05-21T04:20:27.291Z,95.71
2023-05-21T04:21:50.085Z,95.34
2023-05-21T04:23:12.958Z,94.35
2023-05-21T04:24:38.102Z,97.00
2023-05-21T04:26:00.043Z,96.35
2023-05-21T04:27:24.638Z,95.01
2023-05-21T04:28:46.541Z,96.46
2023-05-21T04:30:10.049Z,98.22
2023-05-21T04:31:32.276Z,98.31
2023-05-21T04:32:55.413Z,96.83
2023-05-21T04:34:17.875Z,95.51
2023-05-21T04:35:44.612Z,94.53
2023-05-21T04:37:07.819Z,93.96
2023-05-21T04:38:30.180Z,94.21
2023-05-21T04:39:53.527Z,94.33
2023-05-21T04:41:15.435Z,94.80
2023-05-21T04:42:41.209Z,96.35
2023-05-21T04:44:05.841Z,97.77
2023-05-21T04:45:29.415Z,96.60
2023-05-21T04:46:52.565Z,95.12
2023-05-21T04:48:15.800Z,96.71
2023-05-21T04:49:38.697Z,97.29
2023-05-21T04:51:00.578Z,97.90
2023-05-21T04:52:25.030Z,96.80
2023-05-21T04:53:48.061Z,100.00
2023-05-21T04:55:11.206Z,100.00
2023-05-21T04:56:34.138Z,100.00
2023-05-21T04:57:58.353Z,100.00
2023-05-21T04:59:21.150Z,100.00
2023-05-21T05:00:46.708Z,99.84
2023-05-21T05:02:09.673Z,100.00
2023-05-21T05:03:31.609Z,100.00
2023-05-21T05:04:54.415Z,100.00
2023-05-21T05:06:17.648Z,100.00
2023-05-21T05:07:39.550Z,99.84
2023-05-21T05:09:02.404Z,97.76
2023-05-21T05:10:24.478Z,96.67
2023-05-21T05:11:47.254Z,95.00
2023-05-21T05:13:12.556Z,93.37
2023-05-21T05:14:35.656Z,92.93
2023-05-21T05:15:58.480Z,92.04
2023-05-21T05:17:21.371Z,91.13
2023-05-21T05:18:44.156Z,91.53
2023-05-21T05:20:08.469Z,91.83
2023-05-21T05:21:31.850Z,92.36
2023-05-21T05:22:54.696Z,92.23
2023-05-21T05:24:17.523Z,93.00
2023-05-21T05:25:40.503Z,93.06
2023-05-21T05:27:03.335Z,93.17
2023-05-21T05:28:27.481Z,95.84
2023-05-21T05:29:49.370Z,96.88
2023-05-21T05:31:12.195Z,96.26
2023-05-21T05:32:34.154Z,96.12
2023-05-21T05:33:57.581Z,94.50
2023-05-21T05:35:20.521Z,95.68
2023-05-21T05:36:42.379Z,96.65
2023-05-21T05:38:05.219Z,94.68
2023-05-21T05:39:27.091Z,96.02
2023-05-21T05:40:49.993Z,97.61
2023-05-21T05:42:11.909Z,98.10
2023-05-21T05:43:36.039Z,98.18
2023-05-21T05:44:58.854Z,97.25
2023-05-21T05:46:21.669Z,95.73
2023-05-21T05:47:43.552Z,95.48
2023-05-21T05:49:06.469Z,96.76
2023-05-21T05:50:29.405Z,95.38
2023-05-21T05:51:52.336Z,94.25
2023-05-21T05:53:14.660Z,94.70
2023-05-21T05:54:37.469Z,93.78
2023-05-21T05:56:00.530Z,92.76
2023-05-21T05:57:22.442Z,94.01
2023-05-21T05:58:46.585Z,94.59
2023-05-21T06:00:10.488Z,96.20
2023-05-21T06:01:34.430Z,98.21
2023-05-21T06:02:57.319Z,97.75
2023-05-21T06:04:19.208Z,96.10
2023-05-21T06:05:42.079Z,95.48
2023-05-21T06:07:05.278Z,93.83
2023-05-21T06:08:27.271Z,91.96
2023-05-21T06:09:50.106Z,91.12
2023-05-21T06:11:12.067Z,90.55
2023-05-21T06:12:35.200Z,90.69
2023-05-21T06:14:00.863Z,90.71
2023-05-21T06:15:23.710Z,90.17
2023-05-21T06:16:46.741Z,89.68
2023-05-21T06:18:09.660Z,89.33
2023-05-21T06:19:32.534Z,89.46
2023-05-21T06:20:54.503Z,89.88
2023-05-21T06:22:17.370Z,88.97
2023-05-21T06:23:40.264Z,88.98
2023-05-21T06:25:02.108Z,88.89
2023-05-21T06:26:24.973Z,88.95
2023-05-21T06:27:47.803Z,87.79
2023-05-21T06:29:14.204Z,89.31
2023-05-21T06:30:38.140Z,93.74
2023-05-21T06:32:00.190Z,92.88
2023-05-21T06:33:23.292Z,94.36
2023-05-21T06:34:46.832Z,94.62
2023-05-21T06:36:09.949Z,95.76
2023-05-21T06:37:32.826Z,93.54
2023-05-21T06:38:55.634Z,92.10
2023-05-21T06:40:18.436Z,91.32
2023-05-21T06:41:40.634Z,90.58
2023-05-21T06:43:05.204Z,91.27
2023-05-21T06:44:29.433Z,91.88
2023-05-21T06:45:52.442Z,91.85
2023-05-21T06:47:15.406Z,92.06
2023-05-21T06:48:37.299Z,91.96
2023-05-21T06:50:01.118Z,91.82
2023-05-21T06:51:23.955Z,91.62
2023-05-21T06:52:47.243Z,90.12
2023-05-21T06:54:10.121Z,90.07
2023-05-21T06:55:32.967Z,89.50
2023-05-21T06:56:55.373Z,90.32
2023-05-21T06:58:18.204Z,89.48
2023-05-21T06:59:42.528Z,88.49
2023-05-21T07:01:04.635Z,87.77
2023-05-21T07:02:27.528Z,87.58
2023-05-21T07:03:50.662Z,86.99
2023-05-21T07:05:13.466Z,85.24
2023-05-21T07:06:35.995Z,85.58
2023-05-21T07:07:58.804Z,87.62
2023-05-21T07:09:21.600Z,88.71
2023-05-21T07:10:44.429Z,88.55
2023-05-21T07:12:07.945Z,88.89
2023-05-21T07:13:30.837Z,87.26
2023-05-21T07:14:55.360Z,85.86
2023-05-21T07:16:19.002Z,86.04
2023-05-21T07:17:41.850Z,85.41
2023-05-21T07:19:04.687Z,83.35
2023-05-21T07:20:27.530Z,84.07
2023-05-21T07:21:50.601Z,85.08
2023-05-21T07:23:12.549Z,84.61
2023-05-21T07:24:35.395Z,85.99
2023-05-21T07:25:58.266Z,86.12
2023-05-21T07:27:25.715Z,87.49
2023-05-21T07:28:49.097Z,87.80
2023-05-21T07:30:16.059Z,86.54
2023-05-21T07:31:39.151Z,86.00
2023-05-21T07:33:02.207Z,86.14
2023-05-21T07:34:25.473Z,86.94
2023-05-21T07:35:48.524Z,86.27
2023-05-21T07:37:11.357Z,86.72
2023-05-21T07:38:34.556Z,85.56
2023-05-21T07:39:58.391Z,85.17
2023-05-21T07:41:22.020Z,83.72
2023-05-21T07:42:44.821Z,83.58
2023-05-21T07:44:10.977Z,84.65
2023-05-21T07:45:35.280Z,82.86
2023-05-21T07:46:58.735Z,83.48
2023-05-21T07:48:21.604Z,83.50
2023-05-21T07:49:44.456Z,83.17
2023-05-21T07:51:07.576Z,80.73
2023-05-21T07:52:30.501Z,80.83
2023-05-21T07:53:55.292Z,80.14
2023-05-21T07:55:18.356Z,80.14
2023-05-21T07:56:41.139Z,79.03
2023-05-21T07:58:03.042Z,78.89
2023-05-21T07:59:25.920Z,79.70
2023-05-21T08:00:51.036Z,78.65
2023-05-21T08:02:14.351Z,78.32
2023-05-21T08:03:37.318Z,76.75
2023-05-21T08:05:01.557Z,77.48
2023-05-21T08:06:24.434Z,77.04
2023-05-21T08:07:47.667Z,74.88
2023-05-21T08:09:10.458Z,75.92
2023-05-21T08:10:33.273Z,75.24
2023-05-21T08:11:56.112Z,75.28
2023-05-21T08:13:18.220Z,75.72
2023-05-21T08:14:41.513Z,75.50
2023-05-21T08:16:06.912Z,75.65
2023-05-21T08:17:29.770Z,77.35
2023-05-21T08:18:52.765Z,77.47
2023-05-21T08:20:15.153Z,77.60
2023-05-21T08:21:37.998Z,76.66
2023-05-21T08:23:01.118Z,76.99
2023-05-21T08:24:26.354Z,77.16
2023-05-21T08:25:49.160Z,76.12
2023-05-21T08:27:11.777Z,74.90
2023-05-21T08:28:35.639Z,75.83
2023-05-21T08:29:58.453Z,75.71
2023-05-21T08:31:22.770Z,75.46
2023-05-21T08:32:44.762Z,75.13
2023-05-21T08:34:07.826Z,74.56
2023-05-21T08:35:30.697Z,75.74
2023-05-21T08:36:53.834Z,73.99
2023-05-21T08:38:17.655Z,74.03
2023-05-21T08:39:40.566Z,75.43
2023-05-21T08:41:09.886Z,73.79
2023-05-21T08:42:40.318Z,73.46
2023-05-21T08:44:03.905Z,73.03
2023-05-21T08:45:27.934Z,72.35
2023-05-21T08:46:55.996Z,72.53
2023-05-21T08:48:19.365Z,71.21
2023-05-21T08:49:43.352Z,72.09
2023-05-21T08:51:07.137Z,72.73
2023-05-21T08:52:29.145Z,73.11
2023-05-21T08:53:52.237Z,72.03
2023-05-21T08:55:15.484Z,71.03
2023-05-21T08:56:40.752Z,71.13
2023-05-21T08:58:05.247Z,72.03
2023-05-21T08:59:28.217Z,70.73
2023-05-21T09:00:51.357Z,71.77
2023-05-21T09:02:15.279Z,71.56
2023-05-21T09:03:41.082Z,69.85
2023-05-21T09:05:05.580Z,71.19
2023-05-21T09:06:27.842Z,71.02
2023-05-21T09:07:56.953Z,71.33
2023-05-21T09:09:28.854Z,70.79
2023-05-21T09:10:53.289Z,72.63
2023-05-21T09:12:16.386Z,71.88
2023-05-21T09:13:39.714Z,70.81
2023-05-21T09:15:02.995Z,71.08
2023-05-21T09:16:25.847Z,71.30
2023-05-21T09:17:50.132Z,70.84
2023-05-21T09:19:13.039Z,70.36
2023-05-21T09:20:36.276Z,69.99
2023-05-21T09:22:02.277Z,70.02
2023-05-21T09:23:25.178Z,71.05
2023-05-21T09:24:47.915Z,71.67
2023-05-21T09:26:13.808Z,70.28
2023-05-21T09:27:36.096Z,70.77
2023-05-21T09:29:01.115Z,70.83
2023-05-21T09:30:26.794Z,68.85
2023-05-21T09:31:50.763Z,68.60
2023-05-21T09:33:25.867Z,68.58
2023-05-21T09:34:49.096Z,68.75
2023-05-21T09:36:12.053Z,69.49
2023-05-21T09:37:38.440Z,68.41
2023-05-21T09:39:01.843Z,67.81
2023-05-21T09:40:25.388Z,67.08
2023-05-21T09:41:48.471Z,65.89
2023-05-21T09:43:14.931Z,65.61
2023-05-21T09:44:37.778Z,65.73
2023-05-21T09:46:01.925Z,65.12
2023-05-21T09:47:25.344Z,65.26
2023-05-21T09:48:49.511Z,64.51
2023-05-21T09:50:14.395Z,64.17
2023-05-21T09:51:38.685Z,63.56
2023-05-21T09:53:01.500Z,63.61
2023-05-21T09:54:24.869Z,63.61
2023-05-21T09:55:48.800Z,63.53
2023-05-21T09:57:11.619Z,62.51
2023-05-21T09:58:34.493Z,62.90
2023-05-21T09:59:57.393Z,62.19
2023-05-21T10:01:19.949Z,62.13
2023-05-21T10:02:45.958Z,62.99
2023-05-21T10:04:10.917Z,62.53
2023-05-21T10:05:34.690Z,61.30
2023-05-21T10:06:59.401Z,62.08
2023-05-21T10:08:26.470Z,61.86
2023-05-21T10:09:49.833Z,61.50
2023-05-21T10:11:13.198Z,61.61
2023-05-21T10:12:36.901Z,61.60
2023-05-21T10:14:06.229Z,60.99
2023-05-21T10:15:33.207Z,59.63
2023-05-21T10:16:57.292Z,58.70
2023-05-21T10:18:21.584Z,57.62
2023-05-21T10:19:47.588Z,58.70
2023-05-21T10:21:10.701Z,58.61
2023-05-21T10:22:34.002Z,58.46
2023-05-21T10:23:57.643Z,57.15
2023-05-21T10:25:21.726Z,58.38
2023-05-21T10:26:45.602Z,58.39
2023-05-21T10:28:08.464Z,57.25
2023-05-21T10:29:32.296Z,57.97
2023-05-21T10:30:55.401Z,58.25
2023-05-21T10:32:17.384Z,57.78
2023-05-21T10:33:42.107Z,58.49
2023-05-21T10:35:08.509Z,58.23
2023-05-21T10:36:32.001Z,57.97
2023-05-21T10:37:55.448Z,57.42
2023-05-21T10:39:20.810Z,56.27
2023-05-21T10:40:43.690Z,57.14
2023-05-21T10:42:25.653Z,56.40
2023-05-21T10:44:02.692Z,56.64
2023-05-21T10:45:33.610Z,57.80
2023-05-21T10:47:14.861Z,56.42
2023-05-21T10:48:46.516Z,57.57
2023-05-21T10:50:44.726Z,57.81
2023-05-21T10:52:20.073Z,58.70
2023-05-21T10:53:55.604Z,57.68
2023-05-21T10:55:31.781Z,58.46
2023-05-21T10:57:07.657Z,56.60
2023-05-21T10:58:52.497Z,56.50
2023-05-21T11:00:16.081Z,55.36
2023-05-21T11:01:40.555Z,55.37
2023-05-21T11:03:05.366Z,54.63
2023-05-21T11:04:28.712Z,55.12
2023-05-21T11:05:57.191Z,54.15
2023-05-21T11:07:24.650Z,55.14
2023-05-21T11:08:49.064Z,54.21
2023-05-21T11:10:30.156Z,55.73
2023-05-21T11:11:54.510Z,56.41
2023-05-21T11:13:17.186Z,56.39
2023-05-21T11:14:42.848Z,56.55
2023-05-21T11:16:08.277Z,55.95
2023-05-21T11:17:39.237Z,56.35
2023-05-21T11:19:02.194Z,56.68
2023-05-21T11:20:35.302Z,56.67
2023-05-21T11:21:59.609Z,56.54
2023-05-21T11:23:22.412Z,56.46
2023-05-21T11:24:45.311Z,57.51
2023-05-21T11:26:07.207Z,59.13
2023-05-21T11:27:34.804Z,59.09
2023-05-21T11:29:09.423Z,56.56
2023-05-21T11:30:34.490Z,56.99
2023-05-21T11:32:01.647Z,55.90
2023-05-21T11:33:24.480Z,54.93
2023-05-21T11:34:47.814Z,54.64
2023-05-21T11:36:13.761Z,54.47
2023-05-21T11:37:41.565Z,53.44
2023-05-21T11:39:10.817Z,54.49
2023-05-21T11:40:33.694Z,51.08
2023-05-21T11:41:57.986Z,49.74
2023-05-21T11:43:20.804Z,50.88
2023-05-21T11:44:44.042Z,48.59
2023-05-21T11:46:07.136Z,49.18
2023-05-21T11:47:29.907Z,48.50
2023-05-21T11:48:53.794Z,48.16
2023-05-21T11:50:17.637Z,49.71
2023-05-21T11:51:40.572Z,49.86
2023-05-21T11:53:07.578Z,48.65
2023-05-21T11:54:34.058Z,48.14
2023-05-21T11:55:57.705Z,48.46
2023-05-21T11:57:19.931Z,49.24
2023-05-21T11:58:43.534Z,50.45
2023-05-21T12:00:14.077Z,48.93
2023-05-21T12:01:36.973Z,51.08
2023-05-21T12:03:00.184Z,50.78
2023-05-21T12:04:22.413Z,50.34
2023-05-21T12:05:46.211Z,50.41
2023-05-21T12:07:09.048Z,51.85
2023-05-21T12:08:33.253Z,52.19
2023-05-21T12:09:55.719Z,51.23
2023-05-21T12:11:18.883Z,51.71
2023-05-21T12:12:54.030Z,50.38
2023-05-21T12:14:19.122Z,49.36
2023-05-21T12:15:42.021Z,48.31
2023-05-21T12:17:05.026Z,46.79
2023-05-21T12:18:27.981Z,46.55
2023-05-21T12:19:53.074Z,47.77
2023-05-21T12:21:16.294Z,47.62
2023-05-21T12:22:44.046Z,46.90
2023-05-21T12:24:07.443Z,47.23
2023-05-21T12:25:32.045Z,46.91
2023-05-21T12:26:55.257Z,46.38
2023-05-21T12:28:18.316Z,46.28
2023-05-21T12:29:43.341Z,45.76
2023-05-21T12:31:05.628Z,45.54
2023-05-21T12:32:28.811Z,44.94
2023-05-21T12:33:51.563Z,45.36
2023-05-21T12:35:32.794Z,45.36
2023-05-21T12:36:54.784Z,46.76
2023-05-21T12:38:17.602Z,46.34
2023-05-21T12:39:46.724Z,46.19
2023-05-21T12:41:08.654Z,44.99
2023-05-21T12:42:35.047Z,45.80
2023-05-21T12:43:58.551Z,45.48
2023-05-21T12:45:22.786Z,45.89
2023-05-21T12:46:44.773Z,45.32
2023-05-21T12:48:08.109Z,44.50
2023-05-21T12:49:38.655Z,45.97
2023-05-21T12:51:01.710Z,46.80
2023-05-21T12:52:25.612Z,48.53
2023-05-21T12:53:48.064Z,47.93
2023-05-21T12:55:14.286Z,48.98
2023-05-21T12:56:44.987Z,50.30
2023-05-21T12:58:09.017Z,49.47
2023-05-21T12:59:45.100Z,48.59
2023-05-21T13:01:08.940Z,47.59
2023-05-21T13:02:33.289Z,46.99
2023-05-21T13:03:56.619Z,47.83
2023-05-21T13:05:20.113Z,47.92
2023-05-21T13:06:42.834Z,47.40
2023-05-21T13:08:06.101Z,46.50
2023-05-21T13:09:28.092Z,46.05
2023-05-21T13:10:52.316Z,45.33
2023-05-21T13:12:15.332Z,45.44
2023-05-21T13:13:38.201Z,45.98
2023-05-21T13:15:03.737Z,46.32
2023-05-21T13:16:26.628Z,46.57
2023-05-21T13:17:50.822Z,45.34
2023-05-21T13:19:15.328Z,45.91
2023-05-21T13:20:38.616Z,46.36
2023-05-21T13:22:01.689Z,46.17
2023-05-21T13:23:24.783Z,46.03
2023-05-21T13:24:47.990Z,46.48
2023-05-21T13:26:12.135Z,46.52
2023-05-21T13:27:34.963Z,46.93
2023-05-21T13:28:56.833Z,46.72
2023-05-21T13:30:20.722Z,45.78
2023-05-21T13:31:43.927Z,45.28
2023-05-21T13:33:07.326Z,46.05
2023-05-21T13:34:30.259Z,45.73
2023-05-21T13:35:53.179Z,45.90
2023-05-21T13:37:15.152Z,46.46
2023-05-21T13:38:38.101Z,46.53
2023-05-21T13:40:00.965Z,46.05
2023-05-21T13:41:25.146Z,46.72
2023-05-21T13:42:49.915Z,47.69
2023-05-21T13:44:12.757Z,48.91
2023-05-21T13:45:35.791Z,48.65
2023-05-21T13:46:58.793Z,48.56
2023-05-21T13:48:21.838Z,48.91
2023-05-21T13:49:44.669Z,48.90
2023-05-21T13:51:07.500Z,48.84
2023-05-21T13:52:30.304Z,48.60
2023-05-21T13:53:54.059Z,49.32
2023-05-21T13:55:18.885Z,49.95
2023-05-21T13:56:43.130Z,49.30
2023-05-21T13:58:06.312Z,49.38
2023-05-21T13:59:28.689Z,50.30
2023-05-21T14:00:52.105Z,49.83
2023-05-21T14:02:15.033Z,48.66
2023-05-21T14:03:37.971Z,48.77
2023-05-21T14:05:00.852Z,48.95
2023-05-21T14:06:23.698Z,48.15
2023-05-21T14:07:48.259Z,48.12
2023-05-21T14:09:11.142Z,47.61
2023-05-21T14:10:34.030Z,47.53
2023-05-21T14:11:58.752Z,48.41
2023-05-21T14:13:21.594Z,49.24
2023-05-21T14:14:44.411Z,48.73
2023-05-21T14:16:08.332Z,49.09
2023-05-21T14:17:31.186Z,48.79
2023-05-21T14:18:53.424Z,48.79
2023-05-21T14:20:16.257Z,48.82
2023-05-21T14:21:39.094Z,48.82
2023-05-21T14:23:01.895Z,50.00
2023-05-21T14:24:24.707Z,51.28
2023-05-21T14:25:47.498Z,51.69
2023-05-21T14:27:13.856Z,51.58
2023-05-21T14:28:38.063Z,51.61
2023-05-21T14:30:00.940Z,51.89
2023-05-21T14:31:25.089Z,52.03
2023-05-21T14:32:47.985Z,51.26
2023-05-21T14:34:10.815Z,51.49
2023-05-21T14:35:35.803Z,51.82
2023-05-21T14:36:58.765Z,51.88
2023-05-21T14:38:21.610Z,52.86
2023-05-21T14:39:44.550Z,52.83
2023-05-21T14:41:07.353Z,53.48
2023-05-21T14:42:32.072Z,53.20
2023-05-21T14:43:55.046Z,53.66
2023-05-21T14:45:19.443Z,53.52
2023-05-21T14:46:41.853Z,54.02
2023-05-21T14:48:08.567Z,54.08
2023-05-21T14:49:31.563Z,54.72
2023-05-21T14:50:54.956Z,54.35
2023-05-21T14:52:17.877Z,54.90
2023-05-21T14:53:41.269Z,55.20
2023-05-21T14:55:04.292Z,54.91
2023-05-21T14:56:28.142Z,54.80
2023-05-21T14:57:52.387Z,54.32
2023-05-21T14:59:15.260Z,53.75
2023-05-21T15:00:39.178Z,53.20
2023-05-21T15:02:02.284Z,53.03
2023-05-21T15:03:25.362Z,53.25
2023-05-21T15:04:48.288Z,53.34
2023-05-21T15:06:11.302Z,52.62
2023-05-21T15:07:34.150Z,52.49
2023-05-21T15:08:56.266Z,52.93
2023-05-21T15:10:19.228Z,53.41
2023-05-21T15:11:41.149Z,53.04
2023-05-21T15:13:05.504Z,53.74
2023-05-21T15:14:27.734Z,53.89
2023-05-21T15:15:51.097Z,53.47
2023-05-21T15:17:14.036Z,54.33
2023-05-21T15:18:36.938Z,53.82
2023-05-21T15:20:01.414Z,53.41
2023-05-21T15:21:26.511Z,53.71
2023-05-21T15:22:51.454Z,54.00
2023-05-21T15:24:15.353Z,54.02
2023-05-21T15:25:38.351Z,54.24
2023-05-21T15:27:01.358Z,54.55
2023-05-21T15:28:25.727Z,54.49
2023-05-21T15:29:49.351Z,54.41
2023-05-21T15:31:12.468Z,53.98
2023-05-21T15:32:35.467Z,54.69
2023-05-21T15:33:59.074Z,54.44
2023-05-21T15:35:23.424Z,53.72
2023-05-21T15:36:46.442Z,53.93
2023-05-21T15:38:09.310Z,54.08
2023-05-21T15:39:32.169Z,53.75
2023-05-21T15:40:54.971Z,54.74
2023-05-21T15:42:17.891Z,56.07
2023-05-21T15:43:42.243Z,55.00
2023-05-21T15:45:05.814Z,55.53
2023-05-21T15:46:27.700Z,54.43
2023-05-21T15:47:50.627Z,54.78
2023-05-21T15:49:13.451Z,55.03
2023-05-21T15:50:37.621Z,54.78
2023-05-21T15:52:00.819Z,54.48
2023-05-21T15:53:23.627Z,54.27
2023-05-21T15:54:46.842Z,54.86
2023-05-21T15:56:09.952Z,54.77
2023-05-21T15:57:32.817Z,54.57
2023-05-21T15:58:59.915Z,54.56
2023-05-21T16:00:22.707Z,54.55
2023-05-21T16:01:45.776Z,54.42
2023-05-21T16:03:08.796Z,53.60
2023-05-21T16:04:33.035Z,54.08
2023-05-21T16:05:55.895Z,53.79
2023-05-21T16:07:18.762Z,53.59
2023-05-21T16:08:41.627Z,53.62
2023-05-21T16:10:04.905Z,54.12
2023-05-21T16:11:28.032Z,54.69
2023-05-21T16:12:50.877Z,54.42
2023-05-21T16:14:15.130Z,54.54
2023-05-21T16:15:38.281Z,54.88
2023-05-21T16:17:01.489Z,54.61
2023-05-21T16:18:24.379Z,54.44
2023-05-21T16:19:47.413Z,54.35
2023-05-21T16:21:10.717Z,54.73
2023-05-21T16:22:32.621Z,55.33
2023-05-21T16:23:55.531Z,55.56
2023-05-21T16:25:18.813Z,55.50
2023-05-21T16:26:41.696Z,55.74
2023-05-21T16:28:04.701Z,56.33
2023-05-21T16:29:28.843Z,56.59
2023-05-21T16:30:51.529Z,56.56
2023-05-21T16:32:14.782Z,56.61
2023-05-21T16:33:36.772Z,56.96
2023-05-21T16:34:59.630Z,56.60
2023-05-21T16:36:22.519Z,56.51
2023-05-21T16:37:44.431Z,58.04
2023-05-21T16:39:07.237Z,57.79
2023-05-21T16:40:31.039Z,57.52
2023-05-21T16:41:55.878Z,58.10
2023-05-21T16:43:18.731Z,58.11
2023-05-21T16:44:42.003Z,57.76
2023-05-21T16:46:04.914Z,57.75
2023-05-21T16:47:26.878Z,57.94
2023-05-21T16:48:49.693Z,58.21
2023-05-21T16:50:12.590Z,58.59
2023-05-21T16:51:34.467Z,58.27
2023-05-21T16:52:59.089Z,58.90
2023-05-21T16:54:22.019Z,59.28
2023-05-21T16:55:44.857Z,58.52
2023-05-21T16:57:08.018Z,59.34
2023-05-21T16:58:33.202Z,59.83
2023-05-21T16:59:57.615Z,59.74
2023-05-21T17:01:20.480Z,59.50
2023-05-21T17:02:43.417Z,59.17
2023-05-21T17:04:06.615Z,60.16
2023-05-21T17:05:28.831Z,60.62
2023-05-21T17:06:51.660Z,60.61
2023-05-21T17:08:14.511Z,60.44
2023-05-21T17:09:37.379Z,60.98
2023-05-21T17:10:59.225Z,60.97
2023-05-21T17:12:22.021Z,60.90
2023-05-21T17:13:48.359Z,61.58
2023-05-21T17:15:12.534Z,61.38
2023-05-21T17:16:35.525Z,61.86
2023-05-21T17:17:58.516Z,61.45
2023-05-21T17:19:20.493Z,61.34
2023-05-21T17:20:44.015Z,60.37
2023-05-21T17:22:07.008Z,60.74
2023-05-21T17:23:29.814Z,60.71
2023-05-21T17:24:52.656Z,61.17
2023-05-21T17:26:14.569Z,61.15
2023-05-21T17:27:37.758Z,60.96
2023-05-21T17:29:00.731Z,61.26
2023-05-21T17:30:24.850Z,61.95
2023-05-21T17:31:47.808Z,61.83
2023-05-21T17:33:12.247Z,61.61
2023-05-21T17:34:35.182Z,61.76
2023-05-21T17:35:58.056Z,62.70
2023-05-21T17:37:20.874Z,62.70
2023-05-21T17:38:43.849Z,63.12
2023-05-21T17:40:08.186Z,63.86
2023-05-21T17:41:31.049Z,62.93
2023-05-21T17:42:53.898Z,63.25
2023-05-21T17:44:17.159Z,63.69
2023-05-21T17:45:41.326Z,63.84
2023-05-21T17:47:04.769Z,63.17
2023-05-21T17:48:27.633Z,63.38
2023-05-21T17:49:50.806Z,64.63
2023-05-21T17:51:14.125Z,64.80
2023-05-21T17:52:37.179Z,65.42
2023-05-21T17:54:00.207Z,65.10
2023-05-21T17:55:23.015Z,65.02
2023-05-21T17:56:46.376Z,64.01
2023-05-21T17:58:10.337Z,64.39
2023-05-21T17:59:33.176Z,64.82